sensor_id;sensor_type;location;lat;lon;timestamp;pressure;altitude;pressure_sealevel;temperature;humidity
72961;BME280;61141;46.204;19.774;2023-05-28T00:00:52;100477.41;;;17.07;62.29
72961;BME280;61141;46.204;19.774;2023-05-28T00:03:59;100474.31;;;17.01;62.45
72961;BME280;61141;46.204;19.774;2023-05-28T00:07:02;100470.41;;;16.95;62.67
72961;BME280;61141;46.204;19.774;2023-05-28T00:10:06;100463.78;;;16.82;62.93
72961;BME280;61141;46.204;19.774;2023-05-28T00:13:09;100468.94;;;16.80;62.85
72961;BME280;61141;46.204;19.774;2023-05-28T00:16:12;100464.19;;;16.80;62.67
72961;BME280;61141;46.204;19.774;2023-05-28T00:19:15;100461.81;;;16.82;63.36
72961;BME280;61141;46.204;19.774;2023-05-28T00:22:18;100460.25;;;16.81;62.73
72961;BME280;61141;46.204;19.774;2023-05-28T00:25:21;100445.31;;;16.72;63.28
72961;BME280;61141;46.204;19.774;2023-05-28T00:28:24;100438.75;;;16.48;63.06
72961;BME280;61141;46.204;19.774;2023-05-28T00:31:27;100453.22;;;16.70;63.19
72961;BME280;61141;46.204;19.774;2023-05-28T00:34:30;100460.06;;;16.51;63.20
72961;BME280;61141;46.204;19.774;2023-05-28T00:37:34;100445.06;;;16.49;63.31
72961;BME280;61141;46.204;19.774;2023-05-28T00:40:42;100450.09;;;16.68;64.00
72961;BME280;61141;46.204;19.774;2023-05-28T00:43:46;100452.53;;;16.52;63.22
72961;BME280;61141;46.204;19.774;2023-05-28T00:46:49;100449.41;;;16.53;63.63
72961;BME280;61141;46.204;19.774;2023-05-28T00:49:52;100437.53;;;16.49;63.86
72961;BME280;61141;46.204;19.774;2023-05-28T00:52:59;100439.94;;;16.47;63.47
72961;BME280;61141;46.204;19.774;2023-05-28T00:56:03;100430.84;;;16.50;64.05
72961;BME280;61141;46.204;19.774;2023-05-28T00:59:06;100436.00;;;16.44;63.93
72961;BME280;61141;46.204;19.774;2023-05-28T01:02:10;100424.31;;;16.23;64.97
72961;BME280;61141;46.204;19.774;2023-05-28T01:05:13;100425.88;;;16.24;64.68
72961;BME280;61141;46.204;19.774;2023-05-28T01:08:17;100425.88;;;16.24;64.42
72961;BME280;61141;46.204;19.774;2023-05-28T01:11:20;100427.47;;;16.21;64.33
72961;BME280;61141;46.204;19.774;2023-05-28T01:14:24;100422.03;;;16.07;64.82
72961;BME280;61141;46.204;19.774;2023-05-28T01:17:28;100422.06;;;16.04;65.33
72961;BME280;61141;46.204;19.774;2023-05-28T01:20:32;100426.00;;;16.10;65.66
72961;BME280;61141;46.204;19.774;2023-05-28T01:23:41;100423.31;;;15.96;64.91
72961;BME280;61141;46.204;19.774;2023-05-28T01:26:46;100425.66;;;15.97;64.43
72961;BME280;61141;46.204;19.774;2023-05-28T01:29:49;100428.47;;;15.90;64.53
72961;BME280;61141;46.204;19.774;2023-05-28T01:32:52;100422.53;;;15.92;65.37
72961;BME280;61141;46.204;19.774;2023-05-28T01:35:55;100432.03;;;15.83;64.99
72961;BME280;61141;46.204;19.774;2023-05-28T01:39:00;100424.13;;;15.89;64.71
72961;BME280;61141;46.204;19.774;2023-05-28T01:42:06;100418.69;;;15.71;66.97
72961;BME280;61141;46.204;19.774;2023-05-28T01:45:11;100423.87;;;15.59;65.55
72961;BME280;61141;46.204;19.774;2023-05-28T01:48:15;100405.28;;;15.66;65.04
72961;BME280;61141;46.204;19.774;2023-05-28T01:51:22;100420.69;;;15.67;64.81
72961;BME280;61141;46.204;19.774;2023-05-28T01:54:25;100401.41;;;15.57;66.09
72961;BME280;61141;46.204;19.774;2023-05-28T01:57:29;100407.72;;;15.54;65.37
72961;BME280;61141;46.204;19.774;2023-05-28T02:00:32;100410.50;;;15.50;64.96
72961;BME280;61141;46.204;19.774;2023-05-28T02:03:38;100412.03;;;15.55;66.62
72961;BME280;61141;46.204;19.774;2023-05-28T02:06:45;100416.44;;;15.49;65.25
72961;BME280;61141;46.204;19.774;2023-05-28T02:09:48;100411.31;;;15.33;65.22
72961;BME280;61141;46.204;19.774;2023-05-28T02:12:51;100412.50;;;15.46;66.10
72961;BME280;61141;46.204;19.774;2023-05-28T02:15:55;100409.34;;;15.30;65.44
72961;BME280;61141;46.204;19.774;2023-05-28T02:18:58;100414.50;;;15.32;65.58
72961;BME280;61141;46.204;19.774;2023-05-28T02:22:02;100403.09;;;15.12;65.72
72961;BME280;61141;46.204;19.774;2023-05-28T02:25:12;100407.03;;;15.11;65.97
72961;BME280;61141;46.204;19.774;2023-05-28T02:28:15;100418.00;;;15.39;66.83
72961;BME280;61141;46.204;19.774;2023-05-28T02:31:18;100423.94;;;15.34;65.91
72961;BME280;61141;46.204;19.774;2023-05-28T02:34:21;100419.69;;;15.05;66.26
72961;BME280;61141;46.204;19.774;2023-05-28T02:37:24;100425.19;;;15.08;66.39
72961;BME280;61141;46.204;19.774;2023-05-28T02:40:27;100426.78;;;15.06;67.43
72961;BME280;61141;46.204;19.774;2023-05-28T02:43:30;100424.81;;;14.96;66.55
72961;BME280;61141;46.204;19.774;2023-05-28T02:46:33;100430.78;;;14.80;67.75
72961;BME280;61141;46.204;19.774;2023-05-28T02:49:37;100431.91;;;14.97;67.21
72961;BME280;61141;46.204;19.774;2023-05-28T02:52:39;100429.94;;;14.83;67.18
72961;BME280;61141;46.204;19.774;2023-05-28T02:55:42;100427.97;;;14.84;67.13
72961;BME280;61141;46.204;19.774;2023-05-28T02:58:45;100441.00;;;14.73;67.35
72961;BME280;61141;46.204;19.774;2023-05-28T03:01:49;100426.41;;;14.76;68.25
72961;BME280;61141;46.204;19.774;2023-05-28T03:04:52;100432.72;;;14.80;68.19
72961;BME280;61141;46.204;19.774;2023-05-28T03:07:56;100419.34;;;14.67;67.82
72961;BME280;61141;46.204;19.774;2023-05-28T03:10:58;100424.88;;;14.46;67.97
72961;BME280;61141;46.204;19.774;2023-05-28T03:14:02;100426.81;;;14.46;68.13
72961;BME280;61141;46.204;19.774;2023-05-28T03:17:04;100431.94;;;14.37;68.61
72961;BME280;61141;46.204;19.774;2023-05-28T03:20:08;100437.44;;;14.61;68.47
72961;BME280;61141;46.204;19.774;2023-05-28T03:23:13;100428.00;;;14.52;68.63
72961;BME280;61141;46.204;19.774;2023-05-28T03:26:16;100428.41;;;14.68;69.46
72961;BME280;61141;46.204;19.774;2023-05-28T03:29:19;100432.31;;;14.42;69.84
72961;BME280;61141;46.204;19.774;2023-05-28T03:32:22;100430.34;;;14.32;69.31
72961;BME280;61141;46.204;19.774;2023-05-28T03:35:24;100439.75;;;14.31;69.54
72961;BME280;61141;46.204;19.774;2023-05-28T03:38:28;100443.78;;;14.55;69.97
72961;BME280;61141;46.204;19.774;2023-05-28T03:41:31;100432.66;;;14.16;69.78
72961;BME280;61141;46.204;19.774;2023-05-28T03:44:34;100438.56;;;14.11;70.15
72961;BME280;61141;46.204;19.774;2023-05-28T03:47:37;100440.22;;;14.33;70.41
72961;BME280;61141;46.204;19.774;2023-05-28T03:50:40;100439.03;;;14.45;70.34
72961;BME280;61141;46.204;19.774;2023-05-28T03:53:43;100428.00;;;14.41;69.66
72961;BME280;61141;46.204;19.774;2023-05-28T03:56:46;100431.56;;;14.52;70.66
72961;BME280;61141;46.204;19.774;2023-05-28T03:59:49;100419.69;;;14.17;70.44
72961;BME280;61141;46.204;19.774;2023-05-28T04:02:52;100433.50;;;14.45;70.45
72961;BME280;61141;46.204;19.774;2023-05-28T04:05:55;100443.75;;;14.37;70.12
72961;BME280;61141;46.204;19.774;2023-05-28T04:08:58;100449.28;;;14.41;70.58
72961;BME280;61141;46.204;19.774;2023-05-28T04:12:02;100413.81;;;14.32;69.79
72961;BME280;61141;46.204;19.774;2023-05-28T04:15:05;100444.53;;;14.55;70.41
72961;BME280;61141;46.204;19.774;2023-05-28T04:18:08;100449.66;;;14.53;70.15
72961;BME280;61141;46.204;19.774;2023-05-28T04:21:11;100447.31;;;14.77;69.58
72961;BME280;61141;46.204;19.774;2023-05-28T04:24:15;100441.81;;;14.80;70.82
72961;BME280;61141;46.204;19.774;2023-05-28T04:27:18;100445.69;;;15.11;68.77
72961;BME280;61141;46.204;19.774;2023-05-28T04:30:22;100453.97;;;15.21;68.92
72961;BME280;61141;46.204;19.774;2023-05-28T04:33:26;100453.09;;;15.42;67.99
72961;BME280;61141;46.204;19.774;2023-05-28T04:36:31;100449.16;;;15.36;67.04
72961;BME280;61141;46.204;19.774;2023-05-28T04:39:35;100444.44;;;15.33;68.20
72961;BME280;61141;46.204;19.774;2023-05-28T04:42:40;100446.66;;;15.80;68.06
72961;BME280;61141;46.204;19.774;2023-05-28T04:45:44;100439.66;;;15.65;67.49
72961;BME280;61141;46.204;19.774;2023-05-28T04:48:47;100441.19;;;15.73;67.43
72961;BME280;61141;46.204;19.774;2023-05-28T04:51:50;100451.88;;;15.61;67.61
72961;BME280;61141;46.204;19.774;2023-05-28T04:54:53;100429.66;;;15.85;67.11
72961;BME280;61141;46.204;19.774;2023-05-28T04:57:56;100445.06;;;15.83;67.30
72961;BME280;61141;46.204;19.774;2023-05-28T05:00:59;100468.69;;;15.95;65.44
72961;BME280;61141;46.204;19.774;2023-05-28T05:04:02;100458.06;;;15.90;66.78
72961;BME280;61141;46.204;19.774;2023-05-28T05:07:05;100450.53;;;15.97;66.40
72961;BME280;61141;46.204;19.774;2023-05-28T05:10:09;100449.56;;;16.25;66.04
72961;BME280;61141;46.204;19.774;2023-05-28T05:13:12;100457.03;;;16.31;66.15
72961;BME280;61141;46.204;19.774;2023-05-28T05:16:19;100454.72;;;16.23;65.39
72961;BME280;61141;46.204;19.774;2023-05-28T05:19:22;100459.66;;;16.56;64.87
72961;BME280;61141;46.204;19.774;2023-05-28T05:22:25;100450.25;;;16.94;63.45
72961;BME280;61141;46.204;19.774;2023-05-28T05:25:28;100447.88;;;17.34;63.01
72961;BME280;61141;46.204;19.774;2023-05-28T05:28:31;100453.97;;;17.52;62.41
72961;BME280;61141;46.204;19.774;2023-05-28T05:31:34;100449.22;;;17.56;62.26
72961;BME280;61141;46.204;19.774;2023-05-28T05:34:37;100447.06;;;17.37;61.83
72961;BME280;61141;46.204;19.774;2023-05-28T05:37:41;100445.31;;;17.50;61.88
72961;BME280;61141;46.204;19.774;2023-05-28T05:40:44;100455.34;;;17.37;62.07
72961;BME280;61141;46.204;19.774;2023-05-28T05:43:48;100449.09;;;17.67;61.56
72961;BME280;61141;46.204;19.774;2023-05-28T05:46:50;100438.47;;;17.62;61.68
72961;BME280;61141;46.204;19.774;2023-05-28T05:49:53;100438.19;;;17.49;62.24
72961;BME280;61141;46.204;19.774;2023-05-28T05:52:56;100442.00;;;17.28;63.54
72961;BME280;61141;46.204;19.774;2023-05-28T05:56:02;100432.00;;;17.34;62.52
72961;BME280;61141;46.204;19.774;2023-05-28T05:59:05;100439.25;;;17.25;63.42
72961;BME280;61141;46.204;19.774;2023-05-28T06:02:08;100442.62;;;17.77;62.21
72961;BME280;61141;46.204;19.774;2023-05-28T06:05:11;100442.47;;;17.87;62.12
72961;BME280;61141;46.204;19.774;2023-05-28T06:08:17;100447.63;;;17.89;61.78
72961;BME280;61141;46.204;19.774;2023-05-28T06:11:23;100453.41;;;17.98;61.89
72961;BME280;61141;46.204;19.774;2023-05-28T06:14:26;100451.41;;;18.29;61.37
72961;BME280;61141;46.204;19.774;2023-05-28T06:17:30;100451.66;;;18.64;59.97
72961;BME280;61141;46.204;19.774;2023-05-28T06:20:34;100446.44;;;18.43;60.11
72961;BME280;61141;46.204;19.774;2023-05-28T06:23:37;100445.09;;;18.28;61.25
72961;BME280;61141;46.204;19.774;2023-05-28T06:26:41;100451.63;;;18.68;60.65
72961;BME280;61141;46.204;19.774;2023-05-28T06:29:44;100456.19;;;18.78;61.28
72961;BME280;61141;46.204;19.774;2023-05-28T06:32:46;100453.91;;;18.50;61.12
72961;BME280;61141;46.204;19.774;2023-05-28T06:35:50;100459.69;;;18.59;60.20
72961;BME280;61141;46.204;19.774;2023-05-28T06:38:54;100457.16;;;18.68;61.29
72961;BME280;61141;46.204;19.774;2023-05-28T06:41:57;100453.87;;;19.19;60.74
72961;BME280;61141;46.204;19.774;2023-05-28T06:45:04;100449.59;;;18.72;60.64
72961;BME280;61141;46.204;19.774;2023-05-28T06:48:07;100444.44;;;18.94;60.37
72961;BME280;61141;46.204;19.774;2023-05-28T06:51:10;100452.62;;;19.24;60.45
72961;BME280;61141;46.204;19.774;2023-05-28T06:54:13;100462.28;;;19.39;58.77
72961;BME280;61141;46.204;19.774;2023-05-28T06:57:17;100462.44;;;19.52;59.58
72961;BME280;61141;46.204;19.774;2023-05-28T07:00:20;100463.00;;;19.43;58.74
72961;BME280;61141;46.204;19.774;2023-05-28T07:03:24;100453.38;;;19.48;60.53
72961;BME280;61141;46.204;19.774;2023-05-28T07:06:28;100447.81;;;19.48;60.59
72961;BME280;61141;46.204;19.774;2023-05-28T07:09:31;100451.97;;;19.36;59.82
72961;BME280;61141;46.204;19.774;2023-05-28T07:12:34;100444.25;;;19.67;59.46
72961;BME280;61141;46.204;19.774;2023-05-28T07:15:36;100436.66;;;20.07;58.63
72961;BME280;61141;46.204;19.774;2023-05-28T07:18:42;100447.59;;;20.33;58.63
72961;BME280;61141;46.204;19.774;2023-05-28T07:21:46;100447.84;;;20.03;60.04
72961;BME280;61141;46.204;19.774;2023-05-28T07:24:49;100437.63;;;19.61;60.24
72961;BME280;61141;46.204;19.774;2023-05-28T07:27:52;100438.62;;;19.51;60.94
72961;BME280;61141;46.204;19.774;2023-05-28T07:30:56;100448.31;;;20.54;58.47
72961;BME280;61141;46.204;19.774;2023-05-28T07:33:59;100441.50;;;20.87;57.64
72961;BME280;61141;46.204;19.774;2023-05-28T07:37:03;100437.00;;;20.61;58.06
72961;BME280;61141;46.204;19.774;2023-05-28T07:40:06;100441.16;;;20.69;58.14
72961;BME280;61141;46.204;19.774;2023-05-28T07:43:10;100445.94;;;20.36;58.96
72961;BME280;61141;46.204;19.774;2023-05-28T07:46:13;100441.09;;;20.56;58.42
72961;BME280;61141;46.204;19.774;2023-05-28T07:49:17;100433.87;;;20.59;58.17
72961;BME280;61141;46.204;19.774;2023-05-28T07:52:20;100438.38;;;20.85;57.86
72961;BME280;61141;46.204;19.774;2023-05-28T07:55:24;100423.94;;;20.58;58.46
72961;BME280;61141;46.204;19.774;2023-05-28T07:58:27;100436.59;;;21.23;57.87
72961;BME280;61141;46.204;19.774;2023-05-28T08:01:30;100443.44;;;20.90;58.37
72961;BME280;61141;46.204;19.774;2023-05-28T08:04:35;100437.75;;;21.38;56.51
72961;BME280;61141;46.204;19.774;2023-05-28T08:07:40;100433.06;;;21.77;55.49
72961;BME280;61141;46.204;19.774;2023-05-28T08:10:43;100443.06;;;21.20;55.71
72961;BME280;61141;46.204;19.774;2023-05-28T08:13:48;100441.56;;;21.44;55.92
72961;BME280;61141;46.204;19.774;2023-05-28T08:16:52;100453.69;;;20.93;56.87
72961;BME280;61141;46.204;19.774;2023-05-28T08:19:54;100440.78;;;20.99;57.96
72961;BME280;61141;46.204;19.774;2023-05-28T08:23:05;100448.34;;;21.72;55.63
72961;BME280;61141;46.204;19.774;2023-05-28T08:26:08;100433.06;;;21.77;56.25
72961;BME280;61141;46.204;19.774;2023-05-28T08:29:11;100435.69;;;21.55;56.28
72961;BME280;61141;46.204;19.774;2023-05-28T08:32:14;100434.72;;;22.03;55.40
72961;BME280;61141;46.204;19.774;2023-05-28T08:35:18;100435.50;;;22.41;54.63
72961;BME280;61141;46.204;19.774;2023-05-28T08:38:21;100434.28;;;22.42;54.05
72961;BME280;61141;46.204;19.774;2023-05-28T08:41:24;100436.38;;;22.38;53.57
72961;BME280;61141;46.204;19.774;2023-05-28T08:44:29;100434.31;;;23.23;52.43
72961;BME280;61141;46.204;19.774;2023-05-28T08:47:32;100417.59;;;22.76;53.37
72961;BME280;61141;46.204;19.774;2023-05-28T08:50:38;100433.81;;;23.16;52.41
72961;BME280;61141;46.204;19.774;2023-05-28T08:53:46;100442.34;;;23.00;52.40
72961;BME280;61141;46.204;19.774;2023-05-28T08:56:53;100437.88;;;23.02;51.95
72961;BME280;61141;46.204;19.774;2023-05-28T08:59:57;100419.28;;;23.43;50.44
72961;BME280;61141;46.204;19.774;2023-05-28T09:03:01;100426.00;;;23.32;51.63
72961;BME280;61141;46.204;19.774;2023-05-28T09:06:10;100431.09;;;23.25;51.35
72961;BME280;61141;46.204;19.774;2023-05-28T09:09:15;100425.62;;;23.86;50.75
72961;BME280;61141;46.204;19.774;2023-05-28T09:12:22;100425.25;;;24.37;49.30
72961;BME280;61141;46.204;19.774;2023-05-28T09:15:25;100416.56;;;23.52;51.51
72961;BME280;61141;46.204;19.774;2023-05-28T09:18:28;100424.81;;;23.55;51.52
72961;BME280;61141;46.204;19.774;2023-05-28T09:21:31;100428.81;;;22.98;52.54
72961;BME280;61141;46.204;19.774;2023-05-28T09:24:38;100422.41;;;23.10;52.22
72961;BME280;61141;46.204;19.774;2023-05-28T09:27:44;100413.34;;;23.62;51.21
72961;BME280;61141;46.204;19.774;2023-05-28T09:30:48;100409.28;;;23.85;51.02
72961;BME280;61141;46.204;19.774;2023-05-28T09:33:51;100413.41;;;23.71;51.01
72961;BME280;61141;46.204;19.774;2023-05-28T09:37:04;100412.63;;;23.27;52.29
72961;BME280;61141;46.204;19.774;2023-05-28T09:40:07;100405.56;;;23.01;53.44
72961;BME280;61141;46.204;19.774;2023-05-28T09:43:12;100388.66;;;22.70;52.97
72961;BME280;61141;46.204;19.774;2023-05-28T09:46:15;100416.31;;;23.03;52.47
72961;BME280;61141;46.204;19.774;2023-05-28T09:49:19;100414.31;;;23.25;52.41
72961;BME280;61141;46.204;19.774;2023-05-28T09:52:22;100417.34;;;23.52;51.90
72961;BME280;61141;46.204;19.774;2023-05-28T09:55:26;100413.28;;;23.75;50.29
72961;BME280;61141;46.204;19.774;2023-05-28T09:58:33;100410.53;;;23.84;50.51
72961;BME280;61141;46.204;19.774;2023-05-28T10:01:58;100406.09;;;24.84;48.61
72961;BME280;61141;46.204;19.774;2023-05-28T10:05:02;100412.75;;;24.69;48.60
72961;BME280;61141;46.204;19.774;2023-05-28T10:08:11;100397.22;;;24.28;50.42
72961;BME280;61141;46.204;19.774;2023-05-28T10:11:16;100398.84;;;23.33;51.19
72961;BME280;61141;46.204;19.774;2023-05-28T10:14:19;100400.69;;;24.50;48.60
72961;BME280;61141;46.204;19.774;2023-05-28T10:17:23;100397.69;;;24.26;49.04
72961;BME280;61141;46.204;19.774;2023-05-28T10:20:26;100402.50;;;24.84;48.05
72961;BME280;61141;46.204;19.774;2023-05-28T10:23:30;100387.88;;;24.31;49.29
72961;BME280;61141;46.204;19.774;2023-05-28T10:26:33;100399.13;;;25.07;47.63
72961;BME280;61141;46.204;19.774;2023-05-28T10:29:43;100384.91;;;25.20;48.25
72961;BME280;61141;46.204;19.774;2023-05-28T10:32:46;100385.06;;;25.34;47.33
72961;BME280;61141;46.204;19.774;2023-05-28T10:35:54;100385.59;;;25.93;46.22
72961;BME280;61141;46.204;19.774;2023-05-28T10:38:58;100385.75;;;25.89;46.41
72961;BME280;61141;46.204;19.774;2023-05-28T10:42:02;100391.25;;;25.75;46.89
72961;BME280;61141;46.204;19.774;2023-05-28T10:45:07;100387.72;;;25.56;46.41
72961;BME280;61141;46.204;19.774;2023-05-28T10:48:15;100382.72;;;26.02;46.10
72961;BME280;61141;46.204;19.774;2023-05-28T10:51:18;100393.88;;;25.87;45.43
72961;BME280;61141;46.204;19.774;2023-05-28T10:57:39;100368.56;;;26.62;44.19
72961;BME280;61141;46.204;19.774;2023-05-28T11:00:45;100366.41;;;25.91;45.17
72961;BME280;61141;46.204;19.774;2023-05-28T11:03:53;100373.31;;;25.72;46.77
72961;BME280;61141;46.204;19.774;2023-05-28T11:06:56;100361.72;;;25.88;46.41
72961;BME280;61141;46.204;19.774;2023-05-28T11:10:01;100360.25;;;26.02;46.15
72961;BME280;61141;46.204;19.774;2023-05-28T11:13:04;100363.88;;;26.35;46.74
72961;BME280;61141;46.204;19.774;2023-05-28T11:16:11;100360.88;;;24.64;49.38
72961;BME280;61141;46.204;19.774;2023-05-28T11:19:14;100366.19;;;25.62;47.86
72961;BME280;61141;46.204;19.774;2023-05-28T11:22:17;100350.56;;;26.12;45.69
72961;BME280;61141;46.204;19.774;2023-05-28T11:25:21;100344.91;;;25.10;47.26
72961;BME280;61141;46.204;19.774;2023-05-28T11:28:24;100343.50;;;25.24;47.27
72961;BME280;61141;46.204;19.774;2023-05-28T11:31:27;100342.97;;;25.52;46.54
72961;BME280;61141;46.204;19.774;2023-05-28T11:34:30;100339.59;;;25.90;45.76
72961;BME280;61141;46.204;19.774;2023-05-28T11:37:36;100331.31;;;25.87;46.36
72961;BME280;61141;46.204;19.774;2023-05-28T11:40:39;100334.03;;;26.38;45.88
72961;BME280;61141;46.204;19.774;2023-05-28T11:43:42;100336.47;;;26.21;45.17
72961;BME280;61141;46.204;19.774;2023-05-28T11:46:45;100325.66;;;26.76;44.15
72961;BME280;61141;46.204;19.774;2023-05-28T11:49:48;100326.50;;;26.44;44.26
72961;BME280;61141;46.204;19.774;2023-05-28T11:52:51;100335.13;;;27.02;43.27
72961;BME280;61141;46.204;19.774;2023-05-28T11:55:54;100316.03;;;27.21;42.86
72961;BME280;61141;46.204;19.774;2023-05-28T11:58:57;100320.72;;;26.23;42.92
72961;BME280;61141;46.204;19.774;2023-05-28T12:02:13;100326.06;;;26.60;41.86
72961;BME280;61141;46.204;19.774;2023-05-28T12:05:18;100304.28;;;26.78;42.17
72961;BME280;61141;46.204;19.774;2023-05-28T12:08:20;100313.44;;;27.03;41.73
72961;BME280;61141;46.204;19.774;2023-05-28T12:11:26;100314.69;;;26.40;43.29
72961;BME280;61141;46.204;19.774;2023-05-28T12:14:30;100315.34;;;26.35;43.47
72961;BME280;61141;46.204;19.774;2023-05-28T12:17:35;100294.97;;;26.25;43.22
72961;BME280;61141;46.204;19.774;2023-05-28T12:20:42;100304.66;;;26.86;42.05
72961;BME280;61141;46.204;19.774;2023-05-28T12:23:46;100296.59;;;27.47;40.95
72961;BME280;61141;46.204;19.774;2023-05-28T12:26:48;100289.44;;;26.78;41.23
72961;BME280;61141;46.204;19.774;2023-05-28T12:29:51;100293.84;;;27.37;41.26
72961;BME280;61141;46.204;19.774;2023-05-28T12:32:54;100299.78;;;25.59;44.20
72961;BME280;61141;46.204;19.774;2023-05-28T12:35:57;100288.59;;;26.15;42.89
72961;BME280;61141;46.204;19.774;2023-05-28T12:39:02;100291.13;;;26.13;43.47
72961;BME280;61141;46.204;19.774;2023-05-28T12:42:06;100291.72;;;26.41;42.63
72961;BME280;61141;46.204;19.774;2023-05-28T12:45:09;100292.38;;;25.20;45.41
72961;BME280;61141;46.204;19.774;2023-05-28T12:48:12;100282.94;;;26.24;42.43
72961;BME280;61141;46.204;19.774;2023-05-28T12:51:15;100291.28;;;26.81;42.04
72961;BME280;61141;46.204;19.774;2023-05-28T12:54:19;100280.28;;;25.97;42.98
72961;BME280;61141;46.204;19.774;2023-05-28T12:57:22;100265.41;;;26.53;42.76
72961;BME280;61141;46.204;19.774;2023-05-28T13:00:25;100282.75;;;26.90;40.82
72961;BME280;61141;46.204;19.774;2023-05-28T13:03:27;100286.72;;;26.60;41.16
72961;BME280;61141;46.204;19.774;2023-05-28T13:06:30;100287.41;;;26.93;41.30
72961;BME280;61141;46.204;19.774;2023-05-28T13:09:33;100276.38;;;27.33;41.01
72961;BME280;61141;46.204;19.774;2023-05-28T13:12:37;100280.44;;;27.62;39.93
72961;BME280;61141;46.204;19.774;2023-05-28T13:15:40;100274.66;;;27.51;40.29
72961;BME280;61141;46.204;19.774;2023-05-28T13:18:43;100266.69;;;27.05;41.07
72961;BME280;61141;46.204;19.774;2023-05-28T13:21:47;100266.97;;;27.36;39.96
72961;BME280;61141;46.204;19.774;2023-05-28T13:24:50;100266.50;;;27.53;40.71
72961;BME280;61141;46.204;19.774;2023-05-28T13:27:52;100264.06;;;27.46;40.53
72961;BME280;61141;46.204;19.774;2023-05-28T13:30:55;100265.59;;;26.50;41.68
72961;BME280;61141;46.204;19.774;2023-05-28T13:33:58;100266.12;;;26.39;41.73
72961;BME280;61141;46.204;19.774;2023-05-28T13:37:03;100267.25;;;26.95;41.21
72961;BME280;61141;46.204;19.774;2023-05-28T13:40:06;100262.78;;;26.88;40.98
72961;BME280;61141;46.204;19.774;2023-05-28T13:43:16;100254.16;;;27.35;40.55
72961;BME280;61141;46.204;19.774;2023-05-28T13:46:27;100256.19;;;27.35;39.75
72961;BME280;61141;46.204;19.774;2023-05-28T13:49:30;100249.69;;;26.85;40.99
72961;BME280;61141;46.204;19.774;2023-05-28T13:52:33;100256.16;;;26.38;43.31
72961;BME280;61141;46.204;19.774;2023-05-28T13:55:36;100230.59;;;26.89;40.82
72961;BME280;61141;46.204;19.774;2023-05-28T13:58:39;100253.41;;;27.50;40.34
72961;BME280;61141;46.204;19.774;2023-05-28T14:01:42;100241.63;;;27.51;40.54
72961;BME280;61141;46.204;19.774;2023-05-28T14:04:45;100239.81;;;27.19;41.14
72961;BME280;61141;46.204;19.774;2023-05-28T14:07:48;100225.47;;;27.02;41.57
72961;BME280;61141;46.204;19.774;2023-05-28T14:10:51;100237.56;;;27.37;40.10
72961;BME280;61141;46.204;19.774;2023-05-28T14:13:55;100226.91;;;27.42;40.48
72961;BME280;61141;46.204;19.774;2023-05-28T14:16:58;100224.78;;;26.78;41.56
72961;BME280;61141;46.204;19.774;2023-05-28T14:20:00;100219.66;;;26.53;42.07
72961;BME280;61141;46.204;19.774;2023-05-28T14:23:04;100215.81;;;27.38;40.43
72961;BME280;61141;46.204;19.774;2023-05-28T14:26:06;100200.81;;;26.82;40.32
72961;BME280;61141;46.204;19.774;2023-05-28T14:29:10;100193.13;;;26.54;40.72
72961;BME280;61141;46.204;19.774;2023-05-28T14:32:12;100203.41;;;26.71;40.78
72961;BME280;61141;46.204;19.774;2023-05-28T14:35:16;100200.69;;;26.00;42.47
72961;BME280;61141;46.204;19.774;2023-05-28T14:38:22;100196.91;;;25.80;43.08
72961;BME280;61141;46.204;19.774;2023-05-28T14:41:25;100201.00;;;26.26;42.72
72961;BME280;61141;46.204;19.774;2023-05-28T14:44:28;100197.88;;;26.77;41.28
72961;BME280;61141;46.204;19.774;2023-05-28T14:47:31;100193.28;;;26.36;41.17
72961;BME280;61141;46.204;19.774;2023-05-28T14:50:34;100199.38;;;26.87;40.15
72961;BME280;61141;46.204;19.774;2023-05-28T14:53:37;100195.44;;;26.55;40.73
72961;BME280;61141;46.204;19.774;2023-05-28T14:56:40;100190.56;;;27.09;39.89
72961;BME280;61141;46.204;19.774;2023-05-28T14:59:44;100192.47;;;26.88;40.55
72961;BME280;61141;46.204;19.774;2023-05-28T15:02:47;100189.94;;;27.19;40.32
72961;BME280;61141;46.204;19.774;2023-05-28T15:05:50;100188.16;;;26.87;40.80
72961;BME280;61141;46.204;19.774;2023-05-28T15:08:53;100191.62;;;26.44;40.32
72961;BME280;61141;46.204;19.774;2023-05-28T15:11:55;100199.50;;;26.40;41.12
72961;BME280;61141;46.204;19.774;2023-05-28T15:14:58;100191.91;;;26.99;39.68
72961;BME280;61141;46.204;19.774;2023-05-28T15:18:01;100196.94;;;27.09;38.82
72961;BME280;61141;46.204;19.774;2023-05-28T15:21:04;100191.34;;;26.42;40.03
72961;BME280;61141;46.204;19.774;2023-05-28T15:24:07;100195.16;;;27.26;37.68
72961;BME280;61141;46.204;19.774;2023-05-28T15:27:10;100190.84;;;27.11;38.09
72961;BME280;61141;46.204;19.774;2023-05-28T15:30:13;100202.97;;;27.02;39.00
72961;BME280;61141;46.204;19.774;2023-05-28T15:33:16;100195.22;;;26.44;39.30
72961;BME280;61141;46.204;19.774;2023-05-28T15:36:19;100180.56;;;26.25;39.99
72961;BME280;61141;46.204;19.774;2023-05-28T15:39:22;100191.84;;;26.55;39.04
72961;BME280;61141;46.204;19.774;2023-05-28T15:42:25;100185.91;;;25.76;40.92
72961;BME280;61141;46.204;19.774;2023-05-28T15:45:28;100188.09;;;26.19;41.03
72961;BME280;61141;46.204;19.774;2023-05-28T15:48:31;100191.16;;;26.60;39.77
72961;BME280;61141;46.204;19.774;2023-05-28T15:51:34;100188.28;;;25.92;41.14